Terminal Aerodrome Forecast
Issued by NWS

Home | Current Version | Previous Version | Text Only | Print | Product List | Glossary On
Versions: 1 2 3 4 5 6 7 8 9 10 11 12 13 14 15 16 17 18 19 20 21 22 23 24 25 26 27 28 29 30 31
000
FTUS46 KMTR 261500 AAA
TAFSFO
TAF AMD
KSFO 261502Z 2615/2718 23005KT P6SM FEW008 SCT015 OVC020
     FM261900 26010KT P6SM FEW011 SCT014 SCT019
     FM262300 27015G20KT P6SM FEW012 SCT015 SCT020
     FM270400 27012KT P6SM SCT012 BKN015
     FM270600 27007KT P6SM FEW008 OVC012=

USA.gov is the U.S. government's official web portal to all federal, state and local government web resources and services.